sensor_id;sensor_type;location;lat;lon;timestamp;P1;durP1;ratioP1;P2;durP2;ratioP2
13026;SDS011;6580;42.680;23.324;2023-01-01T00:01:29;299.50;;;184.77;;
13026;SDS011;6580;42.680;23.324;2023-01-01T00:03:58;284.47;;;175.57;;
13026;SDS011;6580;42.680;23.324;2023-01-01T00:06:27;299.33;;;182.57;;
13026;SDS011;6580;42.680;23.324;2023-01-01T00:08:54;310.63;;;190.97;;
13026;SDS011;6580;42.680;23.324;2023-01-01T00:11:35;296.03;;;183.03;;
13026;SDS011;6580;42.680;23.324;2023-01-01T00:14:02;297.87;;;182.00;;
13026;SDS011;6580;42.680;23.324;2023-01-01T00:16:30;293.17;;;183.13;;
13026;SDS011;6580;42.680;23.324;2023-01-01T00:19:00;298.43;;;179.33;;
13026;SDS011;6580;42.680;23.324;2023-01-01T00:21:28;289.03;;;179.50;;
13026;SDS011;6580;42.680;23.324;2023-01-01T00:23:55;296.63;;;184.87;;
13026;SDS011;6580;42.680;23.324;2023-01-01T00:26:23;312.30;;;187.60;;
13026;SDS011;6580;42.680;23.324;2023-01-01T00:28:53;314.17;;;192.33;;
13026;SDS011;6580;42.680;23.324;2023-01-01T00:31:23;311.80;;;193.27;;
13026;SDS011;6580;42.680;23.324;2023-01-01T00:33:51;324.83;;;195.97;;
13026;SDS011;6580;42.680;23.324;2023-01-01T00:36:20;306.60;;;191.47;;
13026;SDS011;6580;42.680;23.324;2023-01-01T00:38:50;314.40;;;191.03;;
13026;SDS011;6580;42.680;23.324;2023-01-01T00:41:17;296.80;;;188.60;;
13026;SDS011;6580;42.680;23.324;2023-01-01T00:43:44;333.27;;;199.73;;
13026;SDS011;6580;42.680;23.324;2023-01-01T00:46:11;320.50;;;199.50;;
13026;SDS011;6580;42.680;23.324;2023-01-01T00:48:42;324.10;;;190.87;;
13026;SDS011;6580;42.680;23.324;2023-01-01T00:51:09;324.23;;;201.43;;
13026;SDS011;6580;42.680;23.324;2023-01-01T00:53:39;316.53;;;199.87;;
13026;SDS011;6580;42.680;23.324;2023-01-01T00:56:07;320.43;;;195.93;;
13026;SDS011;6580;42.680;23.324;2023-01-01T00:58:34;308.37;;;192.43;;
13026;SDS011;6580;42.680;23.324;2023-01-01T01:01:02;289.83;;;179.23;;
13026;SDS011;6580;42.680;23.324;2023-01-01T01:03:31;288.90;;;178.87;;
13026;SDS011;6580;42.680;23.324;2023-01-01T01:06:06;280.83;;;169.73;;
13026;SDS011;6580;42.680;23.324;2023-01-01T01:08:37;285.83;;;169.93;;
13026;SDS011;6580;42.680;23.324;2023-01-01T01:11:07;274.87;;;167.33;;
13026;SDS011;6580;42.680;23.324;2023-01-01T01:13:36;270.20;;;164.03;;
13026;SDS011;6580;42.680;23.324;2023-01-01T01:16:06;269.63;;;165.90;;
13026;SDS011;6580;42.680;23.324;2023-01-01T01:18:51;266.50;;;163.37;;
13026;SDS011;6580;42.680;23.324;2023-01-01T01:21:22;289.97;;;173.93;;
13026;SDS011;6580;42.680;23.324;2023-01-01T01:23:51;285.43;;;175.57;;
13026;SDS011;6580;42.680;23.324;2023-01-01T01:26:21;294.53;;;174.13;;
13026;SDS011;6580;42.680;23.324;2023-01-01T01:28:51;299.93;;;179.20;;
13026;SDS011;6580;42.680;23.324;2023-01-01T01:31:19;290.17;;;169.80;;
13026;SDS011;6580;42.680;23.324;2023-01-01T01:33:48;310.67;;;186.80;;
13026;SDS011;6580;42.680;23.324;2023-01-01T01:36:15;291.87;;;180.63;;
13026;SDS011;6580;42.680;23.324;2023-01-01T01:38:43;287.53;;;174.43;;
13026;SDS011;6580;42.680;23.324;2023-01-01T01:41:13;299.40;;;183.23;;
13026;SDS011;6580;42.680;23.324;2023-01-01T01:43:49;296.00;;;180.53;;
13026;SDS011;6580;42.680;23.324;2023-01-01T01:46:20;296.00;;;181.20;;
13026;SDS011;6580;42.680;23.324;2023-01-01T01:48:52;283.43;;;174.03;;
13026;SDS011;6580;42.680;23.324;2023-01-01T01:51:26;290.07;;;180.17;;
13026;SDS011;6580;42.680;23.324;2023-01-01T01:53:57;302.23;;;177.20;;
13026;SDS011;6580;42.680;23.324;2023-01-01T01:56:33;295.70;;;175.97;;
13026;SDS011;6580;42.680;23.324;2023-01-01T01:59:07;301.13;;;183.90;;
13026;SDS011;6580;42.680;23.324;2023-01-01T02:01:34;303.37;;;184.70;;
13026;SDS011;6580;42.680;23.324;2023-01-01T02:04:04;307.27;;;184.57;;
13026;SDS011;6580;42.680;23.324;2023-01-01T02:06:33;312.43;;;187.10;;
13026;SDS011;6580;42.680;23.324;2023-01-01T02:09:01;304.60;;;186.47;;
13026;SDS011;6580;42.680;23.324;2023-01-01T02:11:30;314.37;;;191.40;;
13026;SDS011;6580;42.680;23.324;2023-01-01T02:13:58;322.07;;;189.03;;
13026;SDS011;6580;42.680;23.324;2023-01-01T02:16:31;327.00;;;192.00;;
13026;SDS011;6580;42.680;23.324;2023-01-01T02:19:04;308.20;;;185.13;;
13026;SDS011;6580;42.680;23.324;2023-01-01T02:21:38;298.97;;;182.07;;
13026;SDS011;6580;42.680;23.324;2023-01-01T02:27:08;307.73;;;185.37;;
13026;SDS011;6580;42.680;23.324;2023-01-01T02:29:45;312.93;;;188.60;;
13026;SDS011;6580;42.680;23.324;2023-01-01T02:32:17;326.07;;;198.57;;
13026;SDS011;6580;42.680;23.324;2023-01-01T02:34:48;328.13;;;194.23;;
13026;SDS011;6580;42.680;23.324;2023-01-01T02:37:48;309.83;;;189.90;;
13026;SDS011;6580;42.680;23.324;2023-01-01T02:40:18;303.17;;;181.70;;
13026;SDS011;6580;42.680;23.324;2023-01-01T02:42:54;329.60;;;189.53;;
13026;SDS011;6580;42.680;23.324;2023-01-01T02:45:24;321.70;;;192.23;;
13026;SDS011;6580;42.680;23.324;2023-01-01T02:47:52;330.67;;;190.33;;
13026;SDS011;6580;42.680;23.324;2023-01-01T02:50:19;322.17;;;195.23;;
13026;SDS011;6580;42.680;23.324;2023-01-01T02:53:01;302.20;;;187.53;;
13026;SDS011;6580;42.680;23.324;2023-01-01T02:55:54;307.47;;;182.90;;
13026;SDS011;6580;42.680;23.324;2023-01-01T02:58:32;314.43;;;188.40;;
13026;SDS011;6580;42.680;23.324;2023-01-01T03:01:26;317.67;;;188.73;;
13026;SDS011;6580;42.680;23.324;2023-01-01T03:04:00;306.70;;;181.10;;
13026;SDS011;6580;42.680;23.324;2023-01-01T03:06:36;304.00;;;182.87;;
13026;SDS011;6580;42.680;23.324;2023-01-01T03:09:13;318.90;;;188.53;;
13026;SDS011;6580;42.680;23.324;2023-01-01T03:11:49;313.93;;;180.10;;
13026;SDS011;6580;42.680;23.324;2023-01-01T03:14:24;303.67;;;179.63;;
13026;SDS011;6580;42.680;23.324;2023-01-01T03:17:00;289.73;;;170.23;;
13026;SDS011;6580;42.680;23.324;2023-01-01T03:19:33;290.37;;;174.13;;
13026;SDS011;6580;42.680;23.324;2023-01-01T03:22:03;317.27;;;183.63;;
13026;SDS011;6580;42.680;23.324;2023-01-01T03:24:34;296.83;;;176.03;;
13026;SDS011;6580;42.680;23.324;2023-01-01T03:27:06;295.17;;;172.47;;
13026;SDS011;6580;42.680;23.324;2023-01-01T03:29:40;301.13;;;175.87;;
13026;SDS011;6580;42.680;23.324;2023-01-01T03:32:10;280.73;;;164.57;;
13026;SDS011;6580;42.680;23.324;2023-01-01T03:34:46;290.23;;;174.33;;
13026;SDS011;6580;42.680;23.324;2023-01-01T03:37:22;294.30;;;172.43;;
13026;SDS011;6580;42.680;23.324;2023-01-01T03:39:56;296.47;;;168.70;;
13026;SDS011;6580;42.680;23.324;2023-01-01T03:42:28;271.93;;;159.90;;
13026;SDS011;6580;42.680;23.324;2023-01-01T03:45:02;277.23;;;162.23;;
13026;SDS011;6580;42.680;23.324;2023-01-01T03:47:36;268.47;;;160.30;;
13026;SDS011;6580;42.680;23.324;2023-01-01T03:50:04;276.13;;;154.37;;
13026;SDS011;6580;42.680;23.324;2023-01-01T03:52:35;260.73;;;153.90;;
13026;SDS011;6580;42.680;23.324;2023-01-01T03:55:17;275.73;;;151.70;;
13026;SDS011;6580;42.680;23.324;2023-01-01T03:57:49;266.93;;;154.47;;
13026;SDS011;6580;42.680;23.324;2023-01-01T04:00:23;264.43;;;155.10;;
13026;SDS011;6580;42.680;23.324;2023-01-01T04:02:57;257.80;;;152.67;;
13026;SDS011;6580;42.680;23.324;2023-01-01T04:05:28;265.47;;;151.10;;
13026;SDS011;6580;42.680;23.324;2023-01-01T04:07:58;272.83;;;156.83;;
13026;SDS011;6580;42.680;23.324;2023-01-01T04:10:27;258.80;;;151.67;;
13026;SDS011;6580;42.680;23.324;2023-01-01T04:12:56;251.67;;;151.63;;
13026;SDS011;6580;42.680;23.324;2023-01-01T04:15:25;256.00;;;150.30;;
13026;SDS011;6580;42.680;23.324;2023-01-01T04:17:53;255.57;;;151.60;;
13026;SDS011;6580;42.680;23.324;2023-01-01T04:20:24;255.53;;;150.50;;
13026;SDS011;6580;42.680;23.324;2023-01-01T04:22:54;264.23;;;149.90;;
13026;SDS011;6580;42.680;23.324;2023-01-01T04:25:21;264.57;;;153.97;;
13026;SDS011;6580;42.680;23.324;2023-01-01T04:27:52;247.30;;;145.93;;
13026;SDS011;6580;42.680;23.324;2023-01-01T04:30:21;247.63;;;147.77;;
13026;SDS011;6580;42.680;23.324;2023-01-01T04:32:51;258.63;;;147.17;;
13026;SDS011;6580;42.680;23.324;2023-01-01T04:35:19;234.70;;;143.50;;
13026;SDS011;6580;42.680;23.324;2023-01-01T04:37:53;242.57;;;146.37;;
13026;SDS011;6580;42.680;23.324;2023-01-01T04:40:20;248.87;;;144.20;;
13026;SDS011;6580;42.680;23.324;2023-01-01T04:42:57;219.97;;;130.83;;
13026;SDS011;6580;42.680;23.324;2023-01-01T04:45:24;194.83;;;116.17;;
13026;SDS011;6580;42.680;23.324;2023-01-01T04:47:51;211.57;;;123.60;;
13026;SDS011;6580;42.680;23.324;2023-01-01T04:50:18;226.67;;;134.93;;
13026;SDS011;6580;42.680;23.324;2023-01-01T04:52:46;211.50;;;129.23;;
13026;SDS011;6580;42.680;23.324;2023-01-01T04:55:16;215.03;;;122.27;;
13026;SDS011;6580;42.680;23.324;2023-01-01T04:57:44;206.27;;;122.17;;
13026;SDS011;6580;42.680;23.324;2023-01-01T05:00:13;202.53;;;117.77;;
13026;SDS011;6580;42.680;23.324;2023-01-01T05:02:42;211.57;;;123.03;;
13026;SDS011;6580;42.680;23.324;2023-01-01T05:05:11;202.50;;;121.90;;
13026;SDS011;6580;42.680;23.324;2023-01-01T05:07:37;201.20;;;123.50;;
13026;SDS011;6580;42.680;23.324;2023-01-01T05:10:06;194.50;;;118.37;;
13026;SDS011;6580;42.680;23.324;2023-01-01T05:12:38;187.73;;;117.77;;
13026;SDS011;6580;42.680;23.324;2023-01-01T05:15:08;195.23;;;116.50;;
13026;SDS011;6580;42.680;23.324;2023-01-01T05:17:35;186.40;;;112.57;;
13026;SDS011;6580;42.680;23.324;2023-01-01T05:20:04;177.10;;;109.20;;
13026;SDS011;6580;42.680;23.324;2023-01-01T05:22:31;200.97;;;119.20;;
13026;SDS011;6580;42.680;23.324;2023-01-01T05:24:58;209.37;;;125.20;;
13026;SDS011;6580;42.680;23.324;2023-01-01T05:27:25;205.30;;;121.37;;
13026;SDS011;6580;42.680;23.324;2023-01-01T05:29:53;192.87;;;113.63;;
13026;SDS011;6580;42.680;23.324;2023-01-01T05:32:23;179.27;;;108.53;;
13026;SDS011;6580;42.680;23.324;2023-01-01T05:34:51;187.23;;;112.53;;
13026;SDS011;6580;42.680;23.324;2023-01-01T05:37:18;186.37;;;115.47;;
13026;SDS011;6580;42.680;23.324;2023-01-01T05:39:45;186.90;;;108.93;;
13026;SDS011;6580;42.680;23.324;2023-01-01T05:42:12;192.80;;;115.63;;
13026;SDS011;6580;42.680;23.324;2023-01-01T05:44:39;200.57;;;116.97;;
13026;SDS011;6580;42.680;23.324;2023-01-01T05:47:08;190.40;;;115.67;;
13026;SDS011;6580;42.680;23.324;2023-01-01T05:49:35;191.97;;;115.07;;
13026;SDS011;6580;42.680;23.324;2023-01-01T05:52:02;190.53;;;112.97;;
13026;SDS011;6580;42.680;23.324;2023-01-01T05:54:29;199.37;;;115.73;;
13026;SDS011;6580;42.680;23.324;2023-01-01T05:56:56;188.17;;;113.90;;
13026;SDS011;6580;42.680;23.324;2023-01-01T05:59:23;193.10;;;118.20;;
13026;SDS011;6580;42.680;23.324;2023-01-01T06:01:52;190.70;;;119.83;;
13026;SDS011;6580;42.680;23.324;2023-01-01T06:04:24;183.67;;;112.33;;
13026;SDS011;6580;42.680;23.324;2023-01-01T06:06:50;186.80;;;114.13;;
13026;SDS011;6580;42.680;23.324;2023-01-01T06:09:17;188.67;;;115.23;;
13026;SDS011;6580;42.680;23.324;2023-01-01T06:11:44;183.43;;;112.33;;
13026;SDS011;6580;42.680;23.324;2023-01-01T06:14:11;198.17;;;116.60;;
13026;SDS011;6580;42.680;23.324;2023-01-01T06:16:38;201.20;;;119.67;;
13026;SDS011;6580;42.680;23.324;2023-01-01T06:19:06;193.07;;;118.53;;
13026;SDS011;6580;42.680;23.324;2023-01-01T06:21:35;193.70;;;114.57;;
13026;SDS011;6580;42.680;23.324;2023-01-01T06:24:03;196.60;;;119.97;;
13026;SDS011;6580;42.680;23.324;2023-01-01T06:26:31;196.20;;;116.63;;
13026;SDS011;6580;42.680;23.324;2023-01-01T06:28:59;198.00;;;119.43;;
13026;SDS011;6580;42.680;23.324;2023-01-01T06:31:27;204.83;;;120.60;;
13026;SDS011;6580;42.680;23.324;2023-01-01T06:33:54;194.27;;;119.50;;
13026;SDS011;6580;42.680;23.324;2023-01-01T06:36:22;191.20;;;119.77;;
13026;SDS011;6580;42.680;23.324;2023-01-01T06:38:52;192.37;;;115.23;;
13026;SDS011;6580;42.680;23.324;2023-01-01T06:41:23;182.63;;;109.87;;
13026;SDS011;6580;42.680;23.324;2023-01-01T06:43:53;196.83;;;115.83;;
13026;SDS011;6580;42.680;23.324;2023-01-01T06:46:22;184.37;;;113.90;;
13026;SDS011;6580;42.680;23.324;2023-01-01T06:48:53;179.50;;;111.97;;
13026;SDS011;6580;42.680;23.324;2023-01-01T06:51:22;194.63;;;118.40;;
13026;SDS011;6580;42.680;23.324;2023-01-01T06:53:52;190.17;;;117.83;;
13026;SDS011;6580;42.680;23.324;2023-01-01T06:56:20;197.13;;;122.57;;
13026;SDS011;6580;42.680;23.324;2023-01-01T06:58:47;193.53;;;117.47;;
13026;SDS011;6580;42.680;23.324;2023-01-01T07:01:16;195.10;;;114.00;;
13026;SDS011;6580;42.680;23.324;2023-01-01T07:03:49;166.27;;;104.83;;
13026;SDS011;6580;42.680;23.324;2023-01-01T07:06:16;178.30;;;106.83;;
13026;SDS011;6580;42.680;23.324;2023-01-01T07:08:43;159.23;;;101.67;;
13026;SDS011;6580;42.680;23.324;2023-01-01T07:11:12;155.30;;;96.00;;
13026;SDS011;6580;42.680;23.324;2023-01-01T07:13:39;153.07;;;97.97;;
13026;SDS011;6580;42.680;23.324;2023-01-01T07:16:07;158.40;;;101.77;;
13026;SDS011;6580;42.680;23.324;2023-01-01T07:18:34;162.33;;;100.77;;
13026;SDS011;6580;42.680;23.324;2023-01-01T07:21:04;157.00;;;97.20;;
13026;SDS011;6580;42.680;23.324;2023-01-01T07:23:34;159.87;;;98.73;;
13026;SDS011;6580;42.680;23.324;2023-01-01T07:26:01;156.97;;;98.00;;
13026;SDS011;6580;42.680;23.324;2023-01-01T07:28:32;148.93;;;96.03;;
13026;SDS011;6580;42.680;23.324;2023-01-01T07:31:00;146.37;;;92.93;;
13026;SDS011;6580;42.680;23.324;2023-01-01T07:33:27;137.07;;;91.83;;
13026;SDS011;6580;42.680;23.324;2023-01-01T07:35:55;144.37;;;90.63;;
13026;SDS011;6580;42.680;23.324;2023-01-01T07:38:22;149.63;;;93.07;;
13026;SDS011;6580;42.680;23.324;2023-01-01T07:40:49;144.93;;;93.60;;
13026;SDS011;6580;42.680;23.324;2023-01-01T07:43:17;143.70;;;94.23;;
13026;SDS011;6580;42.680;23.324;2023-01-01T07:45:45;147.00;;;95.27;;
13026;SDS011;6580;42.680;23.324;2023-01-01T07:48:12;142.57;;;90.17;;
13026;SDS011;6580;42.680;23.324;2023-01-01T07:50:40;131.80;;;85.73;;
13026;SDS011;6580;42.680;23.324;2023-01-01T07:53:08;135.47;;;85.70;;
13026;SDS011;6580;42.680;23.324;2023-01-01T07:55:35;135.30;;;87.80;;
13026;SDS011;6580;42.680;23.324;2023-01-01T07:58:02;136.80;;;87.17;;
13026;SDS011;6580;42.680;23.324;2023-01-01T08:00:31;132.60;;;86.33;;
13026;SDS011;6580;42.680;23.324;2023-01-01T08:02:59;141.83;;;88.50;;
13026;SDS011;6580;42.680;23.324;2023-01-01T08:05:26;121.60;;;81.07;;
13026;SDS011;6580;42.680;23.324;2023-01-01T08:07:53;120.90;;;81.30;;
13026;SDS011;6580;42.680;23.324;2023-01-01T08:10:20;119.87;;;79.63;;
13026;SDS011;6580;42.680;23.324;2023-01-01T08:12:47;123.53;;;80.23;;
13026;SDS011;6580;42.680;23.324;2023-01-01T08:15:14;117.57;;;79.97;;
13026;SDS011;6580;42.680;23.324;2023-01-01T08:17:41;114.47;;;74.63;;
13026;SDS011;6580;42.680;23.324;2023-01-01T08:20:10;118.30;;;79.07;;
13026;SDS011;6580;42.680;23.324;2023-01-01T08:22:37;122.03;;;79.53;;
13026;SDS011;6580;42.680;23.324;2023-01-01T08:25:04;121.67;;;78.83;;
13026;SDS011;6580;42.680;23.324;2023-01-01T08:27:31;113.80;;;76.60;;
13026;SDS011;6580;42.680;23.324;2023-01-01T08:29:58;122.00;;;79.83;;
13026;SDS011;6580;42.680;23.324;2023-01-01T08:32:24;114.67;;;78.27;;
13026;SDS011;6580;42.680;23.324;2023-01-01T08:34:52;119.17;;;77.63;;
13026;SDS011;6580;42.680;23.324;2023-01-01T08:37:20;129.13;;;85.30;;
13026;SDS011;6580;42.680;23.324;2023-01-01T08:39:48;130.07;;;84.60;;
13026;SDS011;6580;42.680;23.324;2023-01-01T08:42:16;131.43;;;86.33;;
13026;SDS011;6580;42.680;23.324;2023-01-01T08:44:43;141.83;;;91.80;;
13026;SDS011;6580;42.680;23.324;2023-01-01T08:47:17;133.00;;;91.17;;
13026;SDS011;6580;42.680;23.324;2023-01-01T08:49:44;130.10;;;86.80;;
13026;SDS011;6580;42.680;23.324;2023-01-01T08:52:12;142.20;;;89.40;;
13026;SDS011;6580;42.680;23.324;2023-01-01T08:54:42;140.10;;;89.77;;
13026;SDS011;6580;42.680;23.324;2023-01-01T08:57:09;136.20;;;88.47;;
13026;SDS011;6580;42.680;23.324;2023-01-01T08:59:36;131.37;;;88.83;;
13026;SDS011;6580;42.680;23.324;2023-01-01T09:02:03;125.07;;;84.97;;
13026;SDS011;6580;42.680;23.324;2023-01-01T09:04:32;126.27;;;81.10;;
13026;SDS011;6580;42.680;23.324;2023-01-01T09:06:59;125.13;;;83.57;;
13026;SDS011;6580;42.680;23.324;2023-01-01T09:09:28;124.47;;;83.80;;
13026;SDS011;6580;42.680;23.324;2023-01-01T09:11:56;118.67;;;80.47;;
13026;SDS011;6580;42.680;23.324;2023-01-01T09:14:28;117.30;;;81.30;;
13026;SDS011;6580;42.680;23.324;2023-01-01T09:16:59;118.43;;;81.27;;
13026;SDS011;6580;42.680;23.324;2023-01-01T09:19:26;121.07;;;79.67;;
13026;SDS011;6580;42.680;23.324;2023-01-01T09:21:53;112.83;;;72.87;;
13026;SDS011;6580;42.680;23.324;2023-01-01T09:24:21;104.73;;;71.43;;
13026;SDS011;6580;42.680;23.324;2023-01-01T09:26:48;115.40;;;72.93;;
13026;SDS011;6580;42.680;23.324;2023-01-01T09:29:16;102.10;;;71.77;;
13026;SDS011;6580;42.680;23.324;2023-01-01T09:31:45;103.50;;;71.37;;
13026;SDS011;6580;42.680;23.324;2023-01-01T09:34:12;101.30;;;69.97;;
13026;SDS011;6580;42.680;23.324;2023-01-01T09:36:40;120.23;;;71.70;;
13026;SDS011;6580;42.680;23.324;2023-01-01T09:39:09;107.00;;;69.33;;
13026;SDS011;6580;42.680;23.324;2023-01-01T09:41:40;100.80;;;70.30;;
13026;SDS011;6580;42.680;23.324;2023-01-01T09:44:17;102.63;;;72.67;;
13026;SDS011;6580;42.680;23.324;2023-01-01T09:46:53;100.10;;;71.80;;
13026;SDS011;6580;42.680;23.324;2023-01-01T09:49:28;104.47;;;72.57;;
13026;SDS011;6580;42.680;23.324;2023-01-01T09:51:59;105.83;;;71.03;;
13026;SDS011;6580;42.680;23.324;2023-01-01T09:54:30;102.43;;;70.23;;
13026;SDS011;6580;42.680;23.324;2023-01-01T09:57:00;108.63;;;71.23;;
13026;SDS011;6580;42.680;23.324;2023-01-01T09:59:30;102.73;;;68.77;;
13026;SDS011;6580;42.680;23.324;2023-01-01T10:01:58;101.27;;;68.93;;
13026;SDS011;6580;42.680;23.324;2023-01-01T10:04:39;97.80;;;64.40;;
13026;SDS011;6580;42.680;23.324;2023-01-01T10:07:17;102.93;;;65.50;;
13026;SDS011;6580;42.680;23.324;2023-01-01T10:09:49;87.27;;;62.20;;
13026;SDS011;6580;42.680;23.324;2023-01-01T10:12:24;80.43;;;58.90;;
13026;SDS011;6580;42.680;23.324;2023-01-01T10:15:03;79.83;;;58.27;;
13026;SDS011;6580;42.680;23.324;2023-01-01T10:17:39;85.53;;;56.57;;
13026;SDS011;6580;42.680;23.324;2023-01-01T10:20:13;77.43;;;54.47;;
13026;SDS011;6580;42.680;23.324;2023-01-01T10:22:46;71.37;;;53.97;;
13026;SDS011;6580;42.680;23.324;2023-01-01T10:25:18;79.87;;;54.50;;
13026;SDS011;6580;42.680;23.324;2023-01-01T10:27:50;73.93;;;53.30;;
13026;SDS011;6580;42.680;23.324;2023-01-01T10:30:27;68.20;;;49.63;;
13026;SDS011;6580;42.680;23.324;2023-01-01T10:32:56;71.90;;;52.47;;
13026;SDS011;6580;42.680;23.324;2023-01-01T10:35:24;66.90;;;51.60;;
13026;SDS011;6580;42.680;23.324;2023-01-01T10:37:57;62.40;;;48.30;;
13026;SDS011;6580;42.680;23.324;2023-01-01T10:40:26;61.10;;;49.53;;
13026;SDS011;6580;42.680;23.324;2023-01-01T10:42:55;60.53;;;48.27;;
13026;SDS011;6580;42.680;23.324;2023-01-01T10:45:27;60.60;;;47.70;;
13026;SDS011;6580;42.680;23.324;2023-01-01T10:48:13;59.93;;;48.13;;
13026;SDS011;6580;42.680;23.324;2023-01-01T10:50:43;59.97;;;48.80;;
13026;SDS011;6580;42.680;23.324;2023-01-01T10:53:26;55.97;;;47.13;;
13026;SDS011;6580;42.680;23.324;2023-01-01T10:56:01;56.73;;;46.90;;
13026;SDS011;6580;42.680;23.324;2023-01-01T10:58:33;55.27;;;46.30;;
13026;SDS011;6580;42.680;23.324;2023-01-01T11:01:04;58.63;;;46.13;;
13026;SDS011;6580;42.680;23.324;2023-01-01T11:03:33;57.17;;;47.70;;
13026;SDS011;6580;42.680;23.324;2023-01-01T11:06:00;57.10;;;47.50;;
13026;SDS011;6580;42.680;23.324;2023-01-01T11:08:29;54.30;;;45.17;;
13026;SDS011;6580;42.680;23.324;2023-01-01T11:10:58;54.67;;;45.97;;
13026;SDS011;6580;42.680;23.324;2023-01-01T11:13:27;54.40;;;45.23;;
13026;SDS011;6580;42.680;23.324;2023-01-01T11:15:55;50.87;;;44.00;;
13026;SDS011;6580;42.680;23.324;2023-01-01T11:18:26;48.60;;;43.33;;
13026;SDS011;6580;42.680;23.324;2023-01-01T11:21:03;49.20;;;41.97;;
13026;SDS011;6580;42.680;23.324;2023-01-01T11:23:32;47.10;;;42.00;;
13026;SDS011;6580;42.680;23.324;2023-01-01T11:26:03;46.87;;;41.23;;
13026;SDS011;6580;42.680;23.324;2023-01-01T11:28:32;47.47;;;41.93;;
13026;SDS011;6580;42.680;23.324;2023-01-01T11:31:10;47.67;;;41.53;;
13026;SDS011;6580;42.680;23.324;2023-01-01T11:33:43;45.67;;;40.67;;
13026;SDS011;6580;42.680;23.324;2023-01-01T11:36:19;44.23;;;39.23;;
13026;SDS011;6580;42.680;23.324;2023-01-01T11:38:49;42.80;;;38.10;;
13026;SDS011;6580;42.680;23.324;2023-01-01T11:41:31;41.57;;;37.17;;
13026;SDS011;6580;42.680;23.324;2023-01-01T11:44:09;41.73;;;37.30;;
13026;SDS011;6580;42.680;23.324;2023-01-01T11:46:38;42.97;;;38.30;;
13026;SDS011;6580;42.680;23.324;2023-01-01T11:49:13;40.30;;;35.17;;
13026;SDS011;6580;42.680;23.324;2023-01-01T11:51:49;41.83;;;35.97;;
13026;SDS011;6580;42.680;23.324;2023-01-01T11:54:23;40.13;;;35.37;;
13026;SDS011;6580;42.680;23.324;2023-01-01T11:56:59;37.30;;;33.50;;
13026;SDS011;6580;42.680;23.324;2023-01-01T11:59:36;37.47;;;32.53;;
13026;SDS011;6580;42.680;23.324;2023-01-01T12:02:11;39.03;;;33.60;;
13026;SDS011;6580;42.680;23.324;2023-01-01T12:04:45;37.33;;;33.13;;
13026;SDS011;6580;42.680;23.324;2023-01-01T12:07:17;35.60;;;31.20;;
13026;SDS011;6580;42.680;23.324;2023-01-01T12:09:51;34.27;;;30.77;;
13026;SDS011;6580;42.680;23.324;2023-01-01T12:12:25;36.03;;;30.60;;
13026;SDS011;6580;42.680;23.324;2023-01-01T12:14:57;34.23;;;29.60;;
13026;SDS011;6580;42.680;23.324;2023-01-01T12:17:32;34.20;;;30.43;;
13026;SDS011;6580;42.680;23.324;2023-01-01T12:20:07;33.50;;;29.90;;
13026;SDS011;6580;42.680;23.324;2023-01-01T12:22:40;33.77;;;28.90;;
13026;SDS011;6580;42.680;23.324;2023-01-01T12:25:10;32.73;;;29.30;;
13026;SDS011;6580;42.680;23.324;2023-01-01T12:27:44;34.27;;;28.83;;
13026;SDS011;6580;42.680;23.324;2023-01-01T12:30:33;32.57;;;29.20;;
13026;SDS011;6580;42.680;23.324;2023-01-01T12:36:12;34.20;;;28.83;;
13026;SDS011;6580;42.680;23.324;2023-01-01T12:42:03;31.67;;;28.33;;
13026;SDS011;6580;42.680;23.324;2023-01-01T12:44:42;32.03;;;28.53;;
13026;SDS011;6580;42.680;23.324;2023-01-01T12:47:20;35.10;;;31.00;;
13026;SDS011;6580;42.680;23.324;2023-01-01T12:50:03;35.17;;;28.70;;
13026;SDS011;6580;42.680;23.324;2023-01-01T12:52:38;33.37;;;29.77;;
13026;SDS011;6580;42.680;23.324;2023-01-01T12:55:30;32.73;;;28.43;;
13026;SDS011;6580;42.680;23.324;2023-01-01T12:58:11;32.73;;;28.23;;
13026;SDS011;6580;42.680;23.324;2023-01-01T13:00:44;34.93;;;29.50;;
13026;SDS011;6580;42.680;23.324;2023-01-01T13:03:22;35.30;;;29.63;;
13026;SDS011;6580;42.680;23.324;2023-01-01T13:05:57;34.47;;;30.67;;
13026;SDS011;6580;42.680;23.324;2023-01-01T13:08:29;36.27;;;31.73;;
13026;SDS011;6580;42.680;23.324;2023-01-01T13:10:59;32.13;;;28.63;;
13026;SDS011;6580;42.680;23.324;2023-01-01T13:13:27;35.13;;;31.33;;
13026;SDS011;6580;42.680;23.324;2023-01-01T13:15:55;34.33;;;30.67;;
13026;SDS011;6580;42.680;23.324;2023-01-01T13:18:27;32.83;;;29.33;;
13026;SDS011;6580;42.680;23.324;2023-01-01T13:20:59;33.40;;;29.73;;
13026;SDS011;6580;42.680;23.324;2023-01-01T13:23:43;35.07;;;31.03;;
13026;SDS011;6580;42.680;23.324;2023-01-01T13:26:33;34.20;;;28.83;;
13026;SDS011;6580;42.680;23.324;2023-01-01T13:32:00;34.23;;;29.73;;
13026;SDS011;6580;42.680;23.324;2023-01-01T13:34:33;37.53;;;31.17;;
13026;SDS011;6580;42.680;23.324;2023-01-01T13:39:55;31.93;;;28.50;;
13026;SDS011;6580;42.680;23.324;2023-01-01T13:42:40;33.93;;;28.07;;
13026;SDS011;6580;42.680;23.324;2023-01-01T13:45:17;38.13;;;30.57;;
13026;SDS011;6580;42.680;23.324;2023-01-01T13:47:56;33.43;;;27.70;;
13026;SDS011;6580;42.680;23.324;2023-01-01T13:50:46;34.50;;;26.73;;
13026;SDS011;6580;42.680;23.324;2023-01-01T13:56:23;32.60;;;27.43;;
13026;SDS011;6580;42.680;23.324;2023-01-01T13:59:23;29.80;;;26.33;;
13026;SDS011;6580;42.680;23.324;2023-01-01T14:02:22;39.03;;;31.87;;
13026;SDS011;6580;42.680;23.324;2023-01-01T14:04:54;37.30;;;32.77;;
13026;SDS011;6580;42.680;23.324;2023-01-01T14:07:30;40.00;;;32.70;;
13026;SDS011;6580;42.680;23.324;2023-01-01T14:10:15;34.90;;;28.30;;
13026;SDS011;6580;42.680;23.324;2023-01-01T14:12:47;33.17;;;27.07;;
13026;SDS011;6580;42.680;23.324;2023-01-01T14:15:15;35.27;;;30.53;;
13026;SDS011;6580;42.680;23.324;2023-01-01T14:17:47;36.27;;;30.43;;
13026;SDS011;6580;42.680;23.324;2023-01-01T14:20:16;35.37;;;29.10;;
13026;SDS011;6580;42.680;23.324;2023-01-01T14:22:44;37.57;;;29.13;;
13026;SDS011;6580;42.680;23.324;2023-01-01T14:25:13;36.90;;;28.30;;
13026;SDS011;6580;42.680;23.324;2023-01-01T14:27:43;39.70;;;30.33;;
13026;SDS011;6580;42.680;23.324;2023-01-01T14:30:25;36.90;;;29.33;;
13026;SDS011;6580;42.680;23.324;2023-01-01T14:32:55;37.73;;;29.43;;
13026;SDS011;6580;42.680;23.324;2023-01-01T14:35:22;33.83;;;27.43;;
13026;SDS011;6580;42.680;23.324;2023-01-01T14:37:50;44.23;;;29.83;;
13026;SDS011;6580;42.680;23.324;2023-01-01T14:40:18;53.30;;;33.00;;
13026;SDS011;6580;42.680;23.324;2023-01-01T14:42:53;46.57;;;33.40;;
13026;SDS011;6580;42.680;23.324;2023-01-01T14:45:25;39.13;;;30.40;;
13026;SDS011;6580;42.680;23.324;2023-01-01T14:47:52;42.37;;;28.90;;